Solebury, PA (18963)

12:52 PM EDT on June 02, 2015 (GMT -0400)
Middleton Lane | | Change Station
CLOSE
Current Station
Personal Weather Station
Location: Carversville, PA
Elevation: 338 ft
Nearby Weather Stations

Elev 338 ft 40.39 °N, 75.04 °W | Updated 2 minutes ago

Overcast
Overcast
55.5 °F
Feels Like 55.5 °F
N
0.0
Wind Variable Wind from WNW
Gusts 0.0 mph

Today
High -- | Low -- °F
--% Chance of Precip.
Yesterday
High -- | Low -- °F
Precip. -- in
5:31 AM 8:24 PM
Full, 100% visible
Pressure 30.13 in
Visibility 10.0 miles
Clouds Overcast 600 ft
Dew Point 54 °F
Humidity 95%
Rainfall 0.11 in
Snow Depth Not available.
UV 3 out of 12
Pollen .90 out of 12
Air Quality Not available.
Flu Activity Sporadic
METAR KDYL 021554Z AUTO VRB05KT 10SM OVC006 11/11 A3013 RMK AO2 RAB17E39 SLP203 P0000 T01110111

More Conditions Fewer Conditions

Pressure 30.13 in
Visibility 10.0 miles
Clouds Overcast 600 ft
Dew Point 54 °F
Humidity 95%
Rainfall 0.11 in
Snow Depth Not available.
UV 3 out of 12
Pollen .90 out of 12
Air Quality Not available.
Flu Activity Sporadic
METAR KDYL 021554Z AUTO VRB05KT 10SM OVC006 11/11 A3013 RMK AO2 RAB17E39 SLP203 P0000 T01110111

More Conditions Fewer Conditions

Nowcast | as of 10:59 am EDT on June 2, 2015

Occasional light rain and drizzle will continue into early this afternoon across eastern Maryland, Delaware, southeastern Pennsylvania, and central and southern New Jersey. Rainfall amounts will be light, under one- tenth inch, through 130 PM.

×

10-Day Weather Forecast

Almanac

Astronomy

Jun. 02, 2015 Rise Set
Actual Time
Civil Twilight
Nautical Twilight
Astronomical Twilight
Moon
Length of Visible Light
Length of Day
Tomorrow will be .
, % of the Moon is Illuminated

Today's Extremes

State Highs State Lows

Community

WunderPhotos

Upload Photos

1,825,980 photos uploaded!

WunderBlogs® & News

Nearby

Air Quality

  Air Quality AQ Index Pollutant
Not available.

Snow Depth

Station Depth Elevation

Earthquake Activity

City Distance Mag. Time & Date
Minimum magnitude displayed is 2.5.

Coastal Water Temperatures

Place Temperature

Stations

Nearby Weather Stations

Station Location Temp. Windchill Dew Point Humidity Wind Precip. Elev Updated Type